createdAt,value
2022-10-23T00:00:07.031Z,13.36
2022-10-23T00:05:06.949Z,13.37
2022-10-23T00:10:06.994Z,13.33
2022-10-23T00:15:07.019Z,13.27
2022-10-23T00:20:07.108Z,13.27
2022-10-23T00:25:06.987Z,13.20
2022-10-23T00:30:07.130Z,13.22
2022-10-23T00:35:06.508Z,13.23
2022-10-23T00:40:06.450Z,13.22
2022-10-23T00:45:06.380Z,13.18
2022-10-23T00:50:06.323Z,13.15
2022-10-23T00:55:06.248Z,13.13
2022-10-23T01:00:06.192Z,13.12
2022-10-23T01:05:06.119Z,13.15
2022-10-23T01:10:06.060Z,13.12
2022-10-23T01:15:06.048Z,13.08
2022-10-23T01:20:05.928Z,13.01
2022-10-23T01:25:05.854Z,12.97
2022-10-23T01:30:05.804Z,12.95
2022-10-23T01:35:05.725Z,12.97
2022-10-23T01:40:05.675Z,12.98
2022-10-23T01:45:05.591Z,12.95
2022-10-23T01:50:05.537Z,12.90
2022-10-23T01:55:05.459Z,12.83
2022-10-23T02:00:05.400Z,12.75
2022-10-23T02:05:05.477Z,12.65
2022-10-23T02:10:05.269Z,12.59
2022-10-23T02:15:05.196Z,12.52
2022-10-23T02:20:05.138Z,12.44
2022-10-23T02:25:05.064Z,12.35
2022-10-23T02:30:05.085Z,12.27
2022-10-23T02:35:04.932Z,12.23
2022-10-23T02:40:04.873Z,12.16
2022-10-23T02:45:04.805Z,12.09
2022-10-23T02:50:04.741Z,12.11
2022-10-23T02:55:04.689Z,12.08
2022-10-23T03:00:04.616Z,12.09
2022-10-23T03:05:04.533Z,12.05
2022-10-23T03:10:04.479Z,11.98
2022-10-23T03:15:04.403Z,11.94
2022-10-23T03:20:04.344Z,11.99
2022-10-23T03:25:04.279Z,11.93
2022-10-23T03:30:04.214Z,11.91
2022-10-23T03:35:04.141Z,11.86
2022-10-23T03:40:04.084Z,11.84
2022-10-23T03:45:04.010Z,11.84
2022-10-23T03:50:03.953Z,11.88
2022-10-23T03:55:03.918Z,11.90
2022-10-23T04:00:03.823Z,11.87
2022-10-23T04:05:03.750Z,11.86
2022-10-23T04:10:03.693Z,11.80
2022-10-23T04:15:03.620Z,11.83
2022-10-23T04:20:03.561Z,11.87
2022-10-23T04:25:03.489Z,11.87
2022-10-23T04:30:03.432Z,11.90
2022-10-23T04:35:03.354Z,11.87
2022-10-23T04:40:03.297Z,11.81
2022-10-23T04:45:03.226Z,11.63
2022-10-23T04:50:03.170Z,11.48
2022-10-23T04:55:03.093Z,11.36
2022-10-23T05:00:03.051Z,11.30
2022-10-23T05:05:02.966Z,11.26
2022-10-23T05:10:02.907Z,11.22
2022-10-23T05:15:02.835Z,11.10
2022-10-23T05:20:02.779Z,11.09
2022-10-23T05:25:02.711Z,11.07
2022-10-23T05:30:02.645Z,11.04
2022-10-23T05:35:02.585Z,10.98
2022-10-23T05:40:02.513Z,10.91
2022-10-23T05:45:02.445Z,10.83
2022-10-23T05:50:02.388Z,10.80
2022-10-23T05:55:02.308Z,10.80
2022-10-23T06:00:02.274Z,10.91
2022-10-23T06:05:02.187Z,11.06
2022-10-23T06:10:02.138Z,11.14
2022-10-23T06:15:02.063Z,11.22
2022-10-23T06:20:01.997Z,11.27
2022-10-23T06:25:01.914Z,11.73
2022-10-23T06:30:01.890Z,12.38
2022-10-23T06:35:01.783Z,12.72
2022-10-23T06:40:01.723Z,13.03
2022-10-23T06:45:04.877Z,13.52
2022-10-23T06:50:01.592Z,14.35
2022-10-23T06:55:01.532Z,15.14
2022-10-23T07:00:01.462Z,15.21
2022-10-23T07:05:01.407Z,14.91
2022-10-23T07:10:01.396Z,14.83
2022-10-23T07:15:01.254Z,14.77
2022-10-23T07:20:01.211Z,14.66
2022-10-23T07:25:01.127Z,14.66
2022-10-23T07:30:01.064Z,15.21
2022-10-23T07:35:01.051Z,17.16
2022-10-23T07:40:00.934Z,18.50
2022-10-23T07:45:00.864Z,18.38
2022-10-23T07:50:00.806Z,18.41
2022-10-23T07:55:00.730Z,18.59
2022-10-23T08:00:00.669Z,19.13
2022-10-23T08:05:00.598Z,19.06
2022-10-23T08:10:00.539Z,19.06
2022-10-23T08:15:00.468Z,18.81
2022-10-23T08:20:00.408Z,18.60
2022-10-23T08:25:00.338Z,18.45
2022-10-23T08:30:00.287Z,18.24
2022-10-23T08:35:00.211Z,18.07
2022-10-23T08:40:00.145Z,18.21
2022-10-23T08:45:00.079Z,20.16
2022-10-23T08:50:00.014Z,20.73
2022-10-23T08:54:59.938Z,19.50
2022-10-23T08:59:59.879Z,18.96
2022-10-23T09:04:59.803Z,19.84
2022-10-23T09:09:59.743Z,21.21
2022-10-23T09:14:59.673Z,20.32
2022-10-23T09:19:59.617Z,20.55
2022-10-23T09:24:59.542Z,20.04
2022-10-23T09:29:59.499Z,19.47
2022-10-23T09:34:59.415Z,19.50
2022-10-23T09:39:59.552Z,20.68
2022-10-23T09:44:59.284Z,21.20
2022-10-23T09:49:59.224Z,22.24
2022-10-23T09:54:59.152Z,22.49
2022-10-23T09:59:59.099Z,22.40
2022-10-23T10:04:59.027Z,22.32
2022-10-23T10:09:58.972Z,22.37
2022-10-23T10:14:58.895Z,21.88
2022-10-23T10:20:02.366Z,22.01
2022-10-23T10:24:58.768Z,22.93
2022-10-23T10:29:58.713Z,22.90
2022-10-23T10:34:58.637Z,23.49
2022-10-23T10:39:58.576Z,23.80
2022-10-23T10:44:58.507Z,24.36
2022-10-23T10:49:58.449Z,24.53
2022-10-23T10:54:58.407Z,24.91
2022-10-23T10:59:58.323Z,24.85
2022-10-23T11:04:58.250Z,24.48
2022-10-23T11:09:58.198Z,23.49
2022-10-23T11:14:58.130Z,23.17
2022-10-23T11:19:58.070Z,23.28
2022-10-23T11:24:58.409Z,23.13
2022-10-23T11:29:57.938Z,22.42
2022-10-23T11:34:57.866Z,22.28
2022-10-23T11:39:57.807Z,21.73
2022-10-23T11:44:57.735Z,21.33
2022-10-23T11:49:57.678Z,21.02
2022-10-23T11:54:57.604Z,20.69
2022-10-23T11:59:57.548Z,20.57
2022-10-23T12:04:57.474Z,20.46
2022-10-23T12:09:57.418Z,20.11
2022-10-23T12:14:57.344Z,19.92
2022-10-23T12:19:57.288Z,19.94
2022-10-23T12:24:57.214Z,19.73
2022-10-23T12:29:57.157Z,19.57
2022-10-23T12:34:57.079Z,19.47
2022-10-23T12:39:57.020Z,19.69
2022-10-23T12:44:56.944Z,19.68
2022-10-23T12:49:56.884Z,19.69
2022-10-23T12:54:56.812Z,19.65
2022-10-23T12:59:56.756Z,19.66
2022-10-23T13:04:56.682Z,19.68
2022-10-23T13:09:56.626Z,19.72
2022-10-23T13:14:56.555Z,19.79
2022-10-23T13:19:56.500Z,19.76
2022-10-23T13:24:56.424Z,19.54
2022-10-23T13:29:56.370Z,19.51
2022-10-23T13:35:04.019Z,19.54
2022-10-23T13:39:57.267Z,19.48
2022-10-23T13:44:56.166Z,19.47
2022-10-23T13:49:56.112Z,19.40
2022-10-23T13:54:56.040Z,19.30
2022-10-23T13:59:55.984Z,19.23
2022-10-23T14:04:55.918Z,19.20
2022-10-23T14:09:55.856Z,19.20
2022-10-23T14:14:55.786Z,19.18
2022-10-23T14:19:55.728Z,19.17
2022-10-23T14:24:55.656Z,19.14
2022-10-23T14:29:55.600Z,19.15
2022-10-23T14:34:55.529Z,19.14
2022-10-23T14:39:55.474Z,19.14
2022-10-23T14:44:55.398Z,19.10
2022-10-23T14:49:55.342Z,19.08
2022-10-23T14:54:55.267Z,19.00
2022-10-23T14:59:55.212Z,18.95
2022-10-23T15:04:55.139Z,18.90
2022-10-23T15:09:55.085Z,18.86
2022-10-23T15:14:55.011Z,18.80
2022-10-23T15:19:54.955Z,18.73
2022-10-23T15:24:54.882Z,18.66
2022-10-23T15:29:54.822Z,18.55
2022-10-23T15:34:54.750Z,18.44
2022-10-23T15:39:57.230Z,18.35
2022-10-23T15:44:54.621Z,18.28
2022-10-23T15:49:54.562Z,18.28
2022-10-23T15:54:54.485Z,18.24
2022-10-23T15:59:54.427Z,18.15
2022-10-23T16:04:54.354Z,18.07
2022-10-23T16:09:54.297Z,18.00
2022-10-23T16:14:54.222Z,17.93
2022-10-23T16:19:54.162Z,17.91
2022-10-23T16:24:54.090Z,17.81
2022-10-23T16:29:54.030Z,17.71
2022-10-23T16:34:53.958Z,17.77
2022-10-23T16:39:53.897Z,17.75
2022-10-23T16:44:53.827Z,17.71
2022-10-23T16:49:53.767Z,17.66
2022-10-23T16:54:53.693Z,17.60
2022-10-23T16:59:53.632Z,17.64
2022-10-23T17:04:53.560Z,17.62
2022-10-23T17:09:53.500Z,17.57
2022-10-23T17:14:53.435Z,17.56
2022-10-23T17:19:53.362Z,17.54
2022-10-23T17:24:54.223Z,17.56
2022-10-23T17:29:53.231Z,17.67
2022-10-23T17:34:53.170Z,17.77
2022-10-23T17:39:53.098Z,17.84
2022-10-23T17:44:53.040Z,17.89
2022-10-23T17:49:52.967Z,17.96
2022-10-23T17:54:52.907Z,17.96
2022-10-23T17:59:52.841Z,17.97
2022-10-23T18:04:52.776Z,18.07
2022-10-23T18:09:52.778Z,18.04
2022-10-23T18:14:52.646Z,18.07
2022-10-23T18:19:52.571Z,18.06
2022-10-23T18:24:52.514Z,18.04
2022-10-23T18:29:52.439Z,18.07
2022-10-23T18:34:52.381Z,18.14
2022-10-23T18:39:52.311Z,18.18
2022-10-23T18:44:52.251Z,18.19
2022-10-23T18:49:52.182Z,18.12
2022-10-23T18:54:52.119Z,18.02
2022-10-23T18:59:52.047Z,17.93
2022-10-23T19:04:51.989Z,17.84
2022-10-23T19:09:51.948Z,17.75
2022-10-23T19:14:51.859Z,17.67
2022-10-23T19:19:51.785Z,17.64
2022-10-23T19:24:51.730Z,17.62
2022-10-23T19:29:51.662Z,17.63
2022-10-23T19:34:51.597Z,17.62
2022-10-23T19:39:51.525Z,17.63
2022-10-23T19:44:51.465Z,17.64
2022-10-23T19:49:51.393Z,17.71
2022-10-23T19:54:51.336Z,17.78
2022-10-23T19:59:51.262Z,17.81
2022-10-23T20:04:51.205Z,17.78
2022-10-23T20:09:51.130Z,17.62
2022-10-23T20:14:51.072Z,17.49
2022-10-23T20:19:51.003Z,17.42
2022-10-23T20:24:50.940Z,17.36
2022-10-23T20:29:50.870Z,17.19
2022-10-23T20:34:50.812Z,17.04
2022-10-23T20:39:50.738Z,16.70
2022-10-23T20:44:50.681Z,16.48
2022-10-23T20:49:50.606Z,16.37
2022-10-23T20:54:50.551Z,16.28
2022-10-23T20:59:50.479Z,16.08
2022-10-23T21:04:50.422Z,15.97
2022-10-23T21:09:50.348Z,15.90
2022-10-23T21:14:50.289Z,15.88
2022-10-23T21:19:50.217Z,15.83
2022-10-23T21:24:50.167Z,15.79
2022-10-23T21:29:50.085Z,15.76
2022-10-23T21:34:50.062Z,15.75
2022-10-23T21:39:49.956Z,15.76
2022-10-23T21:44:49.893Z,15.75
2022-10-23T21:49:49.820Z,15.68
2022-10-23T21:54:49.762Z,15.67
2022-10-23T21:59:49.935Z,15.62
2022-10-23T22:04:49.628Z,15.45
2022-10-23T22:09:49.552Z,15.43
2022-10-23T22:14:49.492Z,15.39
2022-10-23T22:19:49.418Z,15.41
2022-10-23T22:24:49.358Z,15.45
2022-10-23T22:29:49.282Z,15.45
2022-10-23T22:34:53.160Z,15.35
2022-10-23T22:39:49.147Z,15.23
2022-10-23T22:44:49.087Z,15.16
2022-10-23T22:49:49.012Z,15.05
2022-10-23T22:54:48.966Z,14.96
2022-10-23T22:59:48.882Z,14.88
2022-10-23T23:04:48.824Z,14.80
2022-10-23T23:09:48.749Z,14.72
2022-10-23T23:14:48.693Z,14.69
2022-10-23T23:19:48.618Z,14.66
2022-10-23T23:24:48.564Z,14.66
2022-10-23T23:29:48.489Z,14.66
2022-10-23T23:34:48.433Z,14.66
2022-10-23T23:39:48.361Z,14.69
2022-10-23T23:44:56.009Z,14.66
2022-10-23T23:49:49.257Z,14.65
2022-10-23T23:54:48.176Z,14.62
2022-10-23T23:59:48.103Z,14.54
